sensor_id;sensor_type;location;lat;lon;timestamp;P1;P2;P0
63305;PMS5003;50735;52.060;1.248;2023-05-02T00:00:50;17;15;
63305;PMS5003;50735;52.060;1.248;2023-05-02T00:03:22;15;13;
63305;PMS5003;50735;52.060;1.248;2023-05-02T00:05:53;17;12;
63305;PMS5003;50735;52.060;1.248;2023-05-02T00:08:25;14;13;
63305;PMS5003;50735;52.060;1.248;2023-05-02T00:10:57;16;11;
63305;PMS5003;50735;52.060;1.248;2023-05-02T00:13:29;12;12;
63305;PMS5003;50735;52.060;1.248;2023-05-02T00:16:01;12;10;
63305;PMS5003;50735;52.060;1.248;2023-05-02T00:18:32;11;9;
63305;PMS5003;50735;52.060;1.248;2023-05-02T00:21:04;9;9;
63305;PMS5003;50735;52.060;1.248;2023-05-02T00:23:37;10;9;
63305;PMS5003;50735;52.060;1.248;2023-05-02T00:26:09;9;6;
63305;PMS5003;50735;52.060;1.248;2023-05-02T00:28:40;10;8;
63305;PMS5003;50735;52.060;1.248;2023-05-02T00:31:12;9;7;
63305;PMS5003;50735;52.060;1.248;2023-05-02T00:33:44;8;8;
63305;PMS5003;50735;52.060;1.248;2023-05-02T00:36:16;9;8;
63305;PMS5003;50735;52.060;1.248;2023-05-02T00:38:49;11;9;
63305;PMS5003;50735;52.060;1.248;2023-05-02T00:41:21;9;9;
63305;PMS5003;50735;52.060;1.248;2023-05-02T00:43:53;8;8;
63305;PMS5003;50735;52.060;1.248;2023-05-02T00:46:25;7;7;
63305;PMS5003;50735;52.060;1.248;2023-05-02T00:48:57;9;9;
63305;PMS5003;50735;52.060;1.248;2023-05-02T00:51:29;9;9;
63305;PMS5003;50735;52.060;1.248;2023-05-02T00:54:04;9;9;
63305;PMS5003;50735;52.060;1.248;2023-05-02T00:56:36;13;10;
63305;PMS5003;50735;52.060;1.248;2023-05-02T00:59:08;6;6;
63305;PMS5003;50735;52.060;1.248;2023-05-02T01:01:44;12;9;
63305;PMS5003;50735;52.060;1.248;2023-05-02T01:04:29;11;10;
63305;PMS5003;50735;52.060;1.248;2023-05-02T01:07:11;7;7;
63305;PMS5003;50735;52.060;1.248;2023-05-02T01:09:56;7;7;
63305;PMS5003;50735;52.060;1.248;2023-05-02T01:12:36;10;8;
63305;PMS5003;50735;52.060;1.248;2023-05-02T01:15:14;11;9;
63305;PMS5003;50735;52.060;1.248;2023-05-02T01:17:49;8;6;
63305;PMS5003;50735;52.060;1.248;2023-05-02T01:20:23;9;9;
63305;PMS5003;50735;52.060;1.248;2023-05-02T01:22:59;10;8;
63305;PMS5003;50735;52.060;1.248;2023-05-02T01:25:48;9;9;
63305;PMS5003;50735;52.060;1.248;2023-05-02T01:28:34;8;8;
63305;PMS5003;50735;52.060;1.248;2023-05-02T01:31:13;8;8;
63305;PMS5003;50735;52.060;1.248;2023-05-02T01:33:46;12;11;
63305;PMS5003;50735;52.060;1.248;2023-05-02T01:36:19;12;11;
63305;PMS5003;50735;52.060;1.248;2023-05-02T01:38:53;12;10;
63305;PMS5003;50735;52.060;1.248;2023-05-02T01:41:27;9;9;
63305;PMS5003;50735;52.060;1.248;2023-05-02T01:44:03;11;9;
63305;PMS5003;50735;52.060;1.248;2023-05-02T01:46:39;12;11;
63305;PMS5003;50735;52.060;1.248;2023-05-02T01:49:13;16;12;
63305;PMS5003;50735;52.060;1.248;2023-05-02T01:51:47;9;9;
63305;PMS5003;50735;52.060;1.248;2023-05-02T01:54:20;14;13;
63305;PMS5003;50735;52.060;1.248;2023-05-02T01:56:55;13;12;
63305;PMS5003;50735;52.060;1.248;2023-05-02T01:59:27;11;11;
63305;PMS5003;50735;52.060;1.248;2023-05-02T02:02:02;11;10;
63305;PMS5003;50735;52.060;1.248;2023-05-02T02:04:36;13;12;
63305;PMS5003;50735;52.060;1.248;2023-05-02T02:07:11;12;12;
63305;PMS5003;50735;52.060;1.248;2023-05-02T02:09:44;10;9;
63305;PMS5003;50735;52.060;1.248;2023-05-02T02:12:21;10;10;
63305;PMS5003;50735;52.060;1.248;2023-05-02T02:14:59;11;11;
63305;PMS5003;50735;52.060;1.248;2023-05-02T02:17:38;13;13;
63305;PMS5003;50735;52.060;1.248;2023-05-02T02:20:13;16;14;
63305;PMS5003;50735;52.060;1.248;2023-05-02T02:22:47;11;11;
63305;PMS5003;50735;52.060;1.248;2023-05-02T02:25:19;14;11;
63305;PMS5003;50735;52.060;1.248;2023-05-02T02:27:52;17;13;
63305;PMS5003;50735;52.060;1.248;2023-05-02T02:30:25;11;11;
63305;PMS5003;50735;52.060;1.248;2023-05-02T02:32:57;15;13;
63305;PMS5003;50735;52.060;1.248;2023-05-02T02:35:30;18;12;
63305;PMS5003;50735;52.060;1.248;2023-05-02T02:38:08;22;17;
63305;PMS5003;50735;52.060;1.248;2023-05-02T02:40:46;14;12;
63305;PMS5003;50735;52.060;1.248;2023-05-02T02:43:37;16;12;
63305;PMS5003;50735;52.060;1.248;2023-05-02T02:46:23;16;13;
63305;PMS5003;50735;52.060;1.248;2023-05-02T02:49:05;13;11;
63305;PMS5003;50735;52.060;1.248;2023-05-02T02:51:49;12;12;
63305;PMS5003;50735;52.060;1.248;2023-05-02T02:54:30;17;13;
63305;PMS5003;50735;52.060;1.248;2023-05-02T02:57:06;11;11;
63305;PMS5003;50735;52.060;1.248;2023-05-02T02:59:48;13;13;
63305;PMS5003;50735;52.060;1.248;2023-05-02T03:02:29;10;9;
63305;PMS5003;50735;52.060;1.248;2023-05-02T03:05:03;13;9;
63305;PMS5003;50735;52.060;1.248;2023-05-02T03:07:37;10;9;
63305;PMS5003;50735;52.060;1.248;2023-05-02T03:10:09;13;10;
63305;PMS5003;50735;52.060;1.248;2023-05-02T03:12:41;10;10;
63305;PMS5003;50735;52.060;1.248;2023-05-02T03:15:18;15;12;
63305;PMS5003;50735;52.060;1.248;2023-05-02T03:18:03;11;7;
63305;PMS5003;50735;52.060;1.248;2023-05-02T03:20:35;9;8;
63305;PMS5003;50735;52.060;1.248;2023-05-02T03:23:06;11;8;
63305;PMS5003;50735;52.060;1.248;2023-05-02T03:25:38;10;8;
63305;PMS5003;50735;52.060;1.248;2023-05-02T03:28:10;13;9;
63305;PMS5003;50735;52.060;1.248;2023-05-02T03:30:41;10;8;
63305;PMS5003;50735;52.060;1.248;2023-05-02T03:33:13;12;9;
63305;PMS5003;50735;52.060;1.248;2023-05-02T03:35:45;7;7;
63305;PMS5003;50735;52.060;1.248;2023-05-02T03:38:17;8;6;
63305;PMS5003;50735;52.060;1.248;2023-05-02T03:40:49;8;7;
63305;PMS5003;50735;52.060;1.248;2023-05-02T03:43:21;7;6;
63305;PMS5003;50735;52.060;1.248;2023-05-02T03:45:53;9;7;
63305;PMS5003;50735;52.060;1.248;2023-05-02T03:48:25;11;10;
63305;PMS5003;50735;52.060;1.248;2023-05-02T03:50:57;17;11;
63305;PMS5003;50735;52.060;1.248;2023-05-02T03:53:29;7;7;
63305;PMS5003;50735;52.060;1.248;2023-05-02T03:56:01;8;7;
63305;PMS5003;50735;52.060;1.248;2023-05-02T03:58:33;11;8;
63305;PMS5003;50735;52.060;1.248;2023-05-02T04:01:12;8;8;
63305;PMS5003;50735;52.060;1.248;2023-05-02T04:03:44;7;6;
63305;PMS5003;50735;52.060;1.248;2023-05-02T04:06:16;11;9;
63305;PMS5003;50735;52.060;1.248;2023-05-02T04:08:48;6;6;
63305;PMS5003;50735;52.060;1.248;2023-05-02T04:11:20;8;6;
63305;PMS5003;50735;52.060;1.248;2023-05-02T04:13:52;11;7;
63305;PMS5003;50735;52.060;1.248;2023-05-02T04:16:24;7;6;
63305;PMS5003;50735;52.060;1.248;2023-05-02T04:18:56;9;8;
63305;PMS5003;50735;52.060;1.248;2023-05-02T04:21:28;6;4;
63305;PMS5003;50735;52.060;1.248;2023-05-02T04:23:59;5;5;
63305;PMS5003;50735;52.060;1.248;2023-05-02T04:26:31;8;7;
63305;PMS5003;50735;52.060;1.248;2023-05-02T04:29:03;7;7;
63305;PMS5003;50735;52.060;1.248;2023-05-02T04:31:35;9;8;
63305;PMS5003;50735;52.060;1.248;2023-05-02T04:34:07;8;5;
63305;PMS5003;50735;52.060;1.248;2023-05-02T04:36:39;8;6;
63305;PMS5003;50735;52.060;1.248;2023-05-02T04:39:11;10;7;
63305;PMS5003;50735;52.060;1.248;2023-05-02T04:41:42;8;7;
63305;PMS5003;50735;52.060;1.248;2023-05-02T04:44:14;11;7;
63305;PMS5003;50735;52.060;1.248;2023-05-02T04:46:46;9;6;
63305;PMS5003;50735;52.060;1.248;2023-05-02T04:49:18;5;5;
63305;PMS5003;50735;52.060;1.248;2023-05-02T04:51:50;6;5;
63305;PMS5003;50735;52.060;1.248;2023-05-02T04:54:22;5;5;
63305;PMS5003;50735;52.060;1.248;2023-05-02T04:56:54;6;6;
63305;PMS5003;50735;52.060;1.248;2023-05-02T04:59:25;14;8;
63305;PMS5003;50735;52.060;1.248;2023-05-02T05:01:57;10;5;
63305;PMS5003;50735;52.060;1.248;2023-05-02T05:04:29;7;6;
63305;PMS5003;50735;52.060;1.248;2023-05-02T05:07:01;10;7;
63305;PMS5003;50735;52.060;1.248;2023-05-02T05:09:32;5;5;
63305;PMS5003;50735;52.060;1.248;2023-05-02T05:12:04;5;5;
63305;PMS5003;50735;52.060;1.248;2023-05-02T05:14:36;6;5;
63305;PMS5003;50735;52.060;1.248;2023-05-02T05:17:08;7;7;
63305;PMS5003;50735;52.060;1.248;2023-05-02T05:19:39;8;7;
63305;PMS5003;50735;52.060;1.248;2023-05-02T05:22:11;10;7;
63305;PMS5003;50735;52.060;1.248;2023-05-02T05:24:49;7;5;
63305;PMS5003;50735;52.060;1.248;2023-05-02T05:27:21;13;8;
63305;PMS5003;50735;52.060;1.248;2023-05-02T05:29:53;6;6;
63305;PMS5003;50735;52.060;1.248;2023-05-02T05:32:25;8;6;
63305;PMS5003;50735;52.060;1.248;2023-05-02T05:34:56;9;7;
63305;PMS5003;50735;52.060;1.248;2023-05-02T05:37:28;11;10;
63305;PMS5003;50735;52.060;1.248;2023-05-02T05:40:00;15;9;
63305;PMS5003;50735;52.060;1.248;2023-05-02T05:42:31;12;8;
63305;PMS5003;50735;52.060;1.248;2023-05-02T05:45:03;10;8;
63305;PMS5003;50735;52.060;1.248;2023-05-02T05:47:35;9;6;
63305;PMS5003;50735;52.060;1.248;2023-05-02T05:50:07;9;7;
63305;PMS5003;50735;52.060;1.248;2023-05-02T05:52:39;11;7;
63305;PMS5003;50735;52.060;1.248;2023-05-02T05:55:11;8;6;
63305;PMS5003;50735;52.060;1.248;2023-05-02T05:57:43;8;8;
63305;PMS5003;50735;52.060;1.248;2023-05-02T06:00:15;11;10;
63305;PMS5003;50735;52.060;1.248;2023-05-02T06:02:47;7;5;
63305;PMS5003;50735;52.060;1.248;2023-05-02T06:05:19;6;6;
63305;PMS5003;50735;52.060;1.248;2023-05-02T06:07:51;8;8;
63305;PMS5003;50735;52.060;1.248;2023-05-02T06:10:22;11;10;
63305;PMS5003;50735;52.060;1.248;2023-05-02T06:12:54;8;6;
63305;PMS5003;50735;52.060;1.248;2023-05-02T06:15:26;6;5;
63305;PMS5003;50735;52.060;1.248;2023-05-02T06:17:57;4;4;
63305;PMS5003;50735;52.060;1.248;2023-05-02T06:20:29;7;4;
63305;PMS5003;50735;52.060;1.248;2023-05-02T06:23:01;6;6;
63305;PMS5003;50735;52.060;1.248;2023-05-02T06:25:35;10;6;
63305;PMS5003;50735;52.060;1.248;2023-05-02T06:28:08;6;5;
63305;PMS5003;50735;52.060;1.248;2023-05-02T06:30:40;7;4;
63305;PMS5003;50735;52.060;1.248;2023-05-02T06:33:12;4;4;
63305;PMS5003;50735;52.060;1.248;2023-05-02T06:35:49;7;7;
63305;PMS5003;50735;52.060;1.248;2023-05-02T06:38:22;10;6;
63305;PMS5003;50735;52.060;1.248;2023-05-02T06:40:54;5;5;
63305;PMS5003;50735;52.060;1.248;2023-05-02T06:43:25;6;5;
63305;PMS5003;50735;52.060;1.248;2023-05-02T06:45:57;7;4;
63305;PMS5003;50735;52.060;1.248;2023-05-02T06:48:31;9;6;
63305;PMS5003;50735;52.060;1.248;2023-05-02T06:51:03;10;4;
63305;PMS5003;50735;52.060;1.248;2023-05-02T06:53:35;6;6;
63305;PMS5003;50735;52.060;1.248;2023-05-02T06:56:06;4;4;
63305;PMS5003;50735;52.060;1.248;2023-05-02T06:58:38;5;4;
63305;PMS5003;50735;52.060;1.248;2023-05-02T07:01:10;13;11;
63305;PMS5003;50735;52.060;1.248;2023-05-02T07:03:42;6;5;
63305;PMS5003;50735;52.060;1.248;2023-05-02T07:06:13;7;5;
63305;PMS5003;50735;52.060;1.248;2023-05-02T07:08:45;5;4;
63305;PMS5003;50735;52.060;1.248;2023-05-02T07:11:17;4;4;
63305;PMS5003;50735;52.060;1.248;2023-05-02T07:13:49;6;5;
63305;PMS5003;50735;52.060;1.248;2023-05-02T07:16:20;4;4;
63305;PMS5003;50735;52.060;1.248;2023-05-02T07:18:52;6;5;
63305;PMS5003;50735;52.060;1.248;2023-05-02T07:21:24;7;5;
63305;PMS5003;50735;52.060;1.248;2023-05-02T07:23:56;4;4;
63305;PMS5003;50735;52.060;1.248;2023-05-02T07:26:28;8;6;
63305;PMS5003;50735;52.060;1.248;2023-05-02T07:28:59;10;6;
63305;PMS5003;50735;52.060;1.248;2023-05-02T07:31:31;3;3;
63305;PMS5003;50735;52.060;1.248;2023-05-02T07:34:03;7;5;
63305;PMS5003;50735;52.060;1.248;2023-05-02T07:36:35;4;4;
63305;PMS5003;50735;52.060;1.248;2023-05-02T07:39:07;4;4;
63305;PMS5003;50735;52.060;1.248;2023-05-02T07:41:39;8;5;
63305;PMS5003;50735;52.060;1.248;2023-05-02T07:44:10;4;4;
63305;PMS5003;50735;52.060;1.248;2023-05-02T07:46:42;9;3;
63305;PMS5003;50735;52.060;1.248;2023-05-02T07:49:14;5;3;
63305;PMS5003;50735;52.060;1.248;2023-05-02T07:51:46;4;3;
63305;PMS5003;50735;52.060;1.248;2023-05-02T07:54:18;3;3;
63305;PMS5003;50735;52.060;1.248;2023-05-02T07:56:51;5;4;
63305;PMS5003;50735;52.060;1.248;2023-05-02T07:59:23;5;3;
63305;PMS5003;50735;52.060;1.248;2023-05-02T08:01:54;4;4;
63305;PMS5003;50735;52.060;1.248;2023-05-02T08:04:26;6;5;
63305;PMS5003;50735;52.060;1.248;2023-05-02T08:06:58;4;3;
63305;PMS5003;50735;52.060;1.248;2023-05-02T08:09:30;4;4;
63305;PMS5003;50735;52.060;1.248;2023-05-02T08:12:02;4;4;
63305;PMS5003;50735;52.060;1.248;2023-05-02T08:14:34;5;3;
63305;PMS5003;50735;52.060;1.248;2023-05-02T08:17:05;5;4;
63305;PMS5003;50735;52.060;1.248;2023-05-02T08:19:37;9;4;
63305;PMS5003;50735;52.060;1.248;2023-05-02T08:22:09;5;5;
63305;PMS5003;50735;52.060;1.248;2023-05-02T08:24:41;4;4;
63305;PMS5003;50735;52.060;1.248;2023-05-02T08:27:13;4;4;
63305;PMS5003;50735;52.060;1.248;2023-05-02T08:29:45;8;5;
63305;PMS5003;50735;52.060;1.248;2023-05-02T08:32:17;4;4;
63305;PMS5003;50735;52.060;1.248;2023-05-02T08:34:48;10;5;
63305;PMS5003;50735;52.060;1.248;2023-05-02T08:37:20;4;3;
63305;PMS5003;50735;52.060;1.248;2023-05-02T08:39:52;4;4;
63305;PMS5003;50735;52.060;1.248;2023-05-02T08:42:24;10;4;
63305;PMS5003;50735;52.060;1.248;2023-05-02T08:44:56;2;2;
63305;PMS5003;50735;52.060;1.248;2023-05-02T08:47:28;7;4;
63305;PMS5003;50735;52.060;1.248;2023-05-02T08:50:02;5;3;
63305;PMS5003;50735;52.060;1.248;2023-05-02T08:52:34;3;3;
63305;PMS5003;50735;52.060;1.248;2023-05-02T08:55:06;6;4;
63305;PMS5003;50735;52.060;1.248;2023-05-02T08:57:39;4;4;
63305;PMS5003;50735;52.060;1.248;2023-05-02T09:00:14;5;5;
63305;PMS5003;50735;52.060;1.248;2023-05-02T09:02:50;6;4;
63305;PMS5003;50735;52.060;1.248;2023-05-02T09:05:32;8;5;
63305;PMS5003;50735;52.060;1.248;2023-05-02T09:08:11;7;4;
63305;PMS5003;50735;52.060;1.248;2023-05-02T09:10:51;6;3;
63305;PMS5003;50735;52.060;1.248;2023-05-02T09:13:30;2;2;
63305;PMS5003;50735;52.060;1.248;2023-05-02T09:16:05;2;2;
63305;PMS5003;50735;52.060;1.248;2023-05-02T09:18:39;6;3;
63305;PMS5003;50735;52.060;1.248;2023-05-02T09:21:13;6;4;
63305;PMS5003;50735;52.060;1.248;2023-05-02T09:23:46;5;4;
63305;PMS5003;50735;52.060;1.248;2023-05-02T09:26:19;4;3;
63305;PMS5003;50735;52.060;1.248;2023-05-02T09:28:53;7;4;
63305;PMS5003;50735;52.060;1.248;2023-05-02T09:31:27;3;3;
63305;PMS5003;50735;52.060;1.248;2023-05-02T09:34:06;2;2;
63305;PMS5003;50735;52.060;1.248;2023-05-02T09:36:39;7;5;
63305;PMS5003;50735;52.060;1.248;2023-05-02T09:39:14;10;9;
63305;PMS5003;50735;52.060;1.248;2023-05-02T09:41:47;9;5;
63305;PMS5003;50735;52.060;1.248;2023-05-02T09:44:20;3;3;
63305;PMS5003;50735;52.060;1.248;2023-05-02T09:46:55;5;3;
63305;PMS5003;50735;52.060;1.248;2023-05-02T09:49:38;4;3;
63305;PMS5003;50735;52.060;1.248;2023-05-02T09:52:11;4;4;
63305;PMS5003;50735;52.060;1.248;2023-05-02T09:54:44;3;3;
63305;PMS5003;50735;52.060;1.248;2023-05-02T09:57:15;7;5;
63305;PMS5003;50735;52.060;1.248;2023-05-02T09:59:55;5;5;
63305;PMS5003;50735;52.060;1.248;2023-05-02T10:02:29;5;4;
63305;PMS5003;50735;52.060;1.248;2023-05-02T10:05:02;4;4;
63305;PMS5003;50735;52.060;1.248;2023-05-02T10:07:39;4;4;
63305;PMS5003;50735;52.060;1.248;2023-05-02T10:10:11;4;4;
63305;PMS5003;50735;52.060;1.248;2023-05-02T10:12:47;5;3;
63305;PMS5003;50735;52.060;1.248;2023-05-02T10:15:20;7;5;
63305;PMS5003;50735;52.060;1.248;2023-05-02T10:17:56;7;4;
63305;PMS5003;50735;52.060;1.248;2023-05-02T10:20:30;6;3;
63305;PMS5003;50735;52.060;1.248;2023-05-02T10:23:07;4;4;
63305;PMS5003;50735;52.060;1.248;2023-05-02T10:25:40;9;6;
63305;PMS5003;50735;52.060;1.248;2023-05-02T10:28:12;5;5;
63305;PMS5003;50735;52.060;1.248;2023-05-02T10:30:45;10;6;
63305;PMS5003;50735;52.060;1.248;2023-05-02T10:33:18;7;5;
63305;PMS5003;50735;52.060;1.248;2023-05-02T10:35:51;3;3;
63305;PMS5003;50735;52.060;1.248;2023-05-02T10:38:23;6;6;
63305;PMS5003;50735;52.060;1.248;2023-05-02T10:40:57;4;4;
63305;PMS5003;50735;52.060;1.248;2023-05-02T10:43:31;7;6;
63305;PMS5003;50735;52.060;1.248;2023-05-02T10:46:28;7;7;
63305;PMS5003;50735;52.060;1.248;2023-05-02T10:49:02;8;6;
63305;PMS5003;50735;52.060;1.248;2023-05-02T10:51:35;10;6;
63305;PMS5003;50735;52.060;1.248;2023-05-02T10:54:24;9;4;
63305;PMS5003;50735;52.060;1.248;2023-05-02T10:57:04;10;7;
63305;PMS5003;50735;52.060;1.248;2023-05-02T10:59:37;8;5;
63305;PMS5003;50735;52.060;1.248;2023-05-02T11:02:45;6;4;
63305;PMS5003;50735;52.060;1.248;2023-05-02T11:05:18;8;4;
63305;PMS5003;50735;52.060;1.248;2023-05-02T11:08:26;7;6;
63305;PMS5003;50735;52.060;1.248;2023-05-02T11:11:34;4;4;
63305;PMS5003;50735;52.060;1.248;2023-05-02T11:14:10;4;4;
63305;PMS5003;50735;52.060;1.248;2023-05-02T11:17:07;6;6;
63305;PMS5003;50735;52.060;1.248;2023-05-02T11:20:19;6;5;
63305;PMS5003;50735;52.060;1.248;2023-05-02T11:22:52;5;3;
63305;PMS5003;50735;52.060;1.248;2023-05-02T11:25:28;3;3;
63305;PMS5003;50735;52.060;1.248;2023-05-02T11:28:02;8;6;
63305;PMS5003;50735;52.060;1.248;2023-05-02T11:30:35;6;4;
63305;PMS5003;50735;52.060;1.248;2023-05-02T11:33:10;13;5;
63305;PMS5003;50735;52.060;1.248;2023-05-02T11:35:44;6;5;
63305;PMS5003;50735;52.060;1.248;2023-05-02T11:38:18;5;4;
63305;PMS5003;50735;52.060;1.248;2023-05-02T11:40:51;4;4;
63305;PMS5003;50735;52.060;1.248;2023-05-02T11:43:26;6;5;
63305;PMS5003;50735;52.060;1.248;2023-05-02T11:45:58;3;3;
63305;PMS5003;50735;52.060;1.248;2023-05-02T11:48:31;6;4;
63305;PMS5003;50735;52.060;1.248;2023-05-02T11:51:03;7;6;
63305;PMS5003;50735;52.060;1.248;2023-05-02T11:53:38;6;6;
63305;PMS5003;50735;52.060;1.248;2023-05-02T11:56:11;6;5;
63305;PMS5003;50735;52.060;1.248;2023-05-02T11:58:43;6;4;
63305;PMS5003;50735;52.060;1.248;2023-05-02T12:01:14;6;6;
63305;PMS5003;50735;52.060;1.248;2023-05-02T12:03:46;8;5;
63305;PMS5003;50735;52.060;1.248;2023-05-02T12:06:18;3;3;
63305;PMS5003;50735;52.060;1.248;2023-05-02T12:08:49;5;5;
63305;PMS5003;50735;52.060;1.248;2023-05-02T12:11:22;6;4;
63305;PMS5003;50735;52.060;1.248;2023-05-02T12:13:54;6;6;
63305;PMS5003;50735;52.060;1.248;2023-05-02T12:16:26;5;5;
63305;PMS5003;50735;52.060;1.248;2023-05-02T12:18:57;4;4;
63305;PMS5003;50735;52.060;1.248;2023-05-02T12:21:30;7;4;
63305;PMS5003;50735;52.060;1.248;2023-05-02T12:24:03;6;4;
63305;PMS5003;50735;52.060;1.248;2023-05-02T12:26:35;4;4;
63305;PMS5003;50735;52.060;1.248;2023-05-02T12:29:07;5;4;
63305;PMS5003;50735;52.060;1.248;2023-05-02T12:31:39;4;4;
63305;PMS5003;50735;52.060;1.248;2023-05-02T12:34:37;6;4;
63305;PMS5003;50735;52.060;1.248;2023-05-02T12:37:10;8;5;
63305;PMS5003;50735;52.060;1.248;2023-05-02T12:39:42;4;4;
63305;PMS5003;50735;52.060;1.248;2023-05-02T12:42:14;6;5;
63305;PMS5003;50735;52.060;1.248;2023-05-02T12:44:48;6;4;
63305;PMS5003;50735;52.060;1.248;2023-05-02T12:47:21;6;4;
63305;PMS5003;50735;52.060;1.248;2023-05-02T12:49:53;5;3;
63305;PMS5003;50735;52.060;1.248;2023-05-02T12:52:45;3;3;
63305;PMS5003;50735;52.060;1.248;2023-05-02T12:55:19;2;2;
63305;PMS5003;50735;52.060;1.248;2023-05-02T12:57:58;4;4;
63305;PMS5003;50735;52.060;1.248;2023-05-02T13:00:31;2;2;
63305;PMS5003;50735;52.060;1.248;2023-05-02T13:03:05;3;3;
63305;PMS5003;50735;52.060;1.248;2023-05-02T13:05:37;5;4;
63305;PMS5003;50735;52.060;1.248;2023-05-02T13:08:09;5;5;
63305;PMS5003;50735;52.060;1.248;2023-05-02T13:10:41;3;3;
63305;PMS5003;50735;52.060;1.248;2023-05-02T13:13:14;4;4;
63305;PMS5003;50735;52.060;1.248;2023-05-02T13:15:45;4;3;
63305;PMS5003;50735;52.060;1.248;2023-05-02T13:18:17;4;4;
63305;PMS5003;50735;52.060;1.248;2023-05-02T13:20:49;5;4;
63305;PMS5003;50735;52.060;1.248;2023-05-02T13:23:21;3;3;
63305;PMS5003;50735;52.060;1.248;2023-05-02T13:25:53;2;2;
63305;PMS5003;50735;52.060;1.248;2023-05-02T13:28:25;3;3;
63305;PMS5003;50735;52.060;1.248;2023-05-02T13:30:56;5;4;
63305;PMS5003;50735;52.060;1.248;2023-05-02T13:33:28;3;3;
63305;PMS5003;50735;52.060;1.248;2023-05-02T13:36:00;4;4;
63305;PMS5003;50735;52.060;1.248;2023-05-02T13:38:32;5;5;
63305;PMS5003;50735;52.060;1.248;2023-05-02T13:41:03;4;4;
63305;PMS5003;50735;52.060;1.248;2023-05-02T13:43:35;5;2;
63305;PMS5003;50735;52.060;1.248;2023-05-02T13:46:07;4;3;
63305;PMS5003;50735;52.060;1.248;2023-05-02T13:48:39;3;3;
63305;PMS5003;50735;52.060;1.248;2023-05-02T13:51:10;3;1;
63305;PMS5003;50735;52.060;1.248;2023-05-02T13:53:42;0;0;
63305;PMS5003;50735;52.060;1.248;2023-05-02T13:56:14;5;4;
63305;PMS5003;50735;52.060;1.248;2023-05-02T13:58:45;4;4;
63305;PMS5003;50735;52.060;1.248;2023-05-02T14:01:17;2;2;
63305;PMS5003;50735;52.060;1.248;2023-05-02T14:03:49;8;4;
63305;PMS5003;50735;52.060;1.248;2023-05-02T14:06:21;4;4;
63305;PMS5003;50735;52.060;1.248;2023-05-02T14:08:53;4;4;
63305;PMS5003;50735;52.060;1.248;2023-05-02T14:11:24;4;4;
63305;PMS5003;50735;52.060;1.248;2023-05-02T14:13:57;3;3;
63305;PMS5003;50735;52.060;1.248;2023-05-02T14:16:28;4;4;
63305;PMS5003;50735;52.060;1.248;2023-05-02T14:19:00;4;4;
63305;PMS5003;50735;52.060;1.248;2023-05-02T14:21:32;5;3;
63305;PMS5003;50735;52.060;1.248;2023-05-02T14:24:04;3;3;
63305;PMS5003;50735;52.060;1.248;2023-05-02T14:26:37;6;3;
63305;PMS5003;50735;52.060;1.248;2023-05-02T14:29:09;10;4;
63305;PMS5003;50735;52.060;1.248;2023-05-02T14:31:40;3;3;
63305;PMS5003;50735;52.060;1.248;2023-05-02T14:34:12;6;3;
63305;PMS5003;50735;52.060;1.248;2023-05-02T14:36:44;3;2;
63305;PMS5003;50735;52.060;1.248;2023-05-02T14:39:16;4;3;
63305;PMS5003;50735;52.060;1.248;2023-05-02T14:41:48;5;3;
63305;PMS5003;50735;52.060;1.248;2023-05-02T14:44:19;4;4;
63305;PMS5003;50735;52.060;1.248;2023-05-02T14:46:52;2;2;
63305;PMS5003;50735;52.060;1.248;2023-05-02T14:49:25;5;3;
63305;PMS5003;50735;52.060;1.248;2023-05-02T14:51:57;6;3;
63305;PMS5003;50735;52.060;1.248;2023-05-02T14:54:29;4;3;
63305;PMS5003;50735;52.060;1.248;2023-05-02T14:57:01;4;3;
63305;PMS5003;50735;52.060;1.248;2023-05-02T14:59:32;4;4;
63305;PMS5003;50735;52.060;1.248;2023-05-02T15:02:04;3;3;
63305;PMS5003;50735;52.060;1.248;2023-05-02T15:04:37;5;3;
63305;PMS5003;50735;52.060;1.248;2023-05-02T15:07:09;5;3;
63305;PMS5003;50735;52.060;1.248;2023-05-02T15:09:40;4;4;
63305;PMS5003;50735;52.060;1.248;2023-05-02T15:12:12;1;1;
63305;PMS5003;50735;52.060;1.248;2023-05-02T15:14:44;4;3;
63305;PMS5003;50735;52.060;1.248;2023-05-02T15:17:16;2;2;
63305;PMS5003;50735;52.060;1.248;2023-05-02T15:19:47;7;4;
63305;PMS5003;50735;52.060;1.248;2023-05-02T15:22:19;9;4;
63305;PMS5003;50735;52.060;1.248;2023-05-02T15:24:51;7;4;
63305;PMS5003;50735;52.060;1.248;2023-05-02T15:27:22;5;4;
63305;PMS5003;50735;52.060;1.248;2023-05-02T15:29:54;4;3;
63305;PMS5003;50735;52.060;1.248;2023-05-02T15:32:26;5;4;
63305;PMS5003;50735;52.060;1.248;2023-05-02T15:34:58;5;4;
63305;PMS5003;50735;52.060;1.248;2023-05-02T15:37:30;5;4;
63305;PMS5003;50735;52.060;1.248;2023-05-02T15:40:01;4;4;
63305;PMS5003;50735;52.060;1.248;2023-05-02T15:42:34;5;3;
63305;PMS5003;50735;52.060;1.248;2023-05-02T15:45:06;6;5;
63305;PMS5003;50735;52.060;1.248;2023-05-02T15:47:41;5;4;
63305;PMS5003;50735;52.060;1.248;2023-05-02T15:50:13;8;5;
63305;PMS5003;50735;52.060;1.248;2023-05-02T15:52:45;4;4;
63305;PMS5003;50735;52.060;1.248;2023-05-02T15:55:16;6;3;
63305;PMS5003;50735;52.060;1.248;2023-05-02T15:57:48;5;5;
63305;PMS5003;50735;52.060;1.248;2023-05-02T16:00:20;3;3;
63305;PMS5003;50735;52.060;1.248;2023-05-02T16:02:52;7;5;
63305;PMS5003;50735;52.060;1.248;2023-05-02T16:05:24;6;5;
63305;PMS5003;50735;52.060;1.248;2023-05-02T16:07:55;5;5;
63305;PMS5003;50735;52.060;1.248;2023-05-02T16:10:27;3;3;
63305;PMS5003;50735;52.060;1.248;2023-05-02T16:12:59;5;5;
63305;PMS5003;50735;52.060;1.248;2023-05-02T16:15:31;5;5;
63305;PMS5003;50735;52.060;1.248;2023-05-02T16:18:03;4;4;
63305;PMS5003;50735;52.060;1.248;2023-05-02T16:20:35;3;3;
63305;PMS5003;50735;52.060;1.248;2023-05-02T16:23:07;4;3;
63305;PMS5003;50735;52.060;1.248;2023-05-02T16:25:39;3;3;
63305;PMS5003;50735;52.060;1.248;2023-05-02T16:28:10;5;5;
63305;PMS5003;50735;52.060;1.248;2023-05-02T16:30:42;3;3;
63305;PMS5003;50735;52.060;1.248;2023-05-02T16:33:14;4;4;
63305;PMS5003;50735;52.060;1.248;2023-05-02T16:35:46;5;3;
63305;PMS5003;50735;52.060;1.248;2023-05-02T16:38:18;5;4;
63305;PMS5003;50735;52.060;1.248;2023-05-02T16:40:49;6;4;
63305;PMS5003;50735;52.060;1.248;2023-05-02T16:43:21;5;3;
63305;PMS5003;50735;52.060;1.248;2023-05-02T16:46:01;7;5;
63305;PMS5003;50735;52.060;1.248;2023-05-02T16:48:33;4;4;
63305;PMS5003;50735;52.060;1.248;2023-05-02T16:51:05;4;4;
63305;PMS5003;50735;52.060;1.248;2023-05-02T16:53:37;5;5;
63305;PMS5003;50735;52.060;1.248;2023-05-02T16:56:09;4;4;
63305;PMS5003;50735;52.060;1.248;2023-05-02T16:58:41;3;3;
63305;PMS5003;50735;52.060;1.248;2023-05-02T17:01:13;10;7;
63305;PMS5003;50735;52.060;1.248;2023-05-02T17:03:45;5;5;
63305;PMS5003;50735;52.060;1.248;2023-05-02T17:06:17;9;4;
63305;PMS5003;50735;52.060;1.248;2023-05-02T17:08:49;6;3;
63305;PMS5003;50735;52.060;1.248;2023-05-02T17:11:20;7;5;
63305;PMS5003;50735;52.060;1.248;2023-05-02T17:13:52;6;6;
63305;PMS5003;50735;52.060;1.248;2023-05-02T17:16:24;4;4;
63305;PMS5003;50735;52.060;1.248;2023-05-02T17:18:56;6;3;
63305;PMS5003;50735;52.060;1.248;2023-05-02T17:21:28;4;4;
63305;PMS5003;50735;52.060;1.248;2023-05-02T17:23:59;4;4;
63305;PMS5003;50735;52.060;1.248;2023-05-02T17:26:31;3;2;
63305;PMS5003;50735;52.060;1.248;2023-05-02T17:29:03;2;2;